createdAt,value
2018-06-15T00:02:16.324Z,69.00
2018-06-15T00:04:44.157Z,69.00
2018-06-15T00:07:11.892Z,69.00
2018-06-15T00:09:39.624Z,69.30
2018-06-15T00:12:07.420Z,69.40
2018-06-15T00:14:35.473Z,69.80
2018-06-15T00:17:03.415Z,69.60
2018-06-15T00:19:31.262Z,69.90
2018-06-15T00:21:59.056Z,70.00
2018-06-15T00:24:26.928Z,69.90
2018-06-15T00:26:54.775Z,69.10
2018-06-15T00:29:22.579Z,68.80
2018-06-15T00:31:50.393Z,68.50
2018-06-15T00:36:45.813Z,68.60
2018-06-15T00:39:14.249Z,69.40
2018-06-15T00:41:43.237Z,69.00
2018-06-15T00:44:11.109Z,69.60
2018-06-15T00:46:38.898Z,69.30
2018-06-15T00:49:07.148Z,69.90
2018-06-15T00:51:35.078Z,70.70
2018-06-15T00:54:02.911Z,70.70
2018-06-15T00:56:30.988Z,71.20
2018-06-15T00:58:58.840Z,71.00
2018-06-15T01:01:26.622Z,71.20
2018-06-15T01:06:23.586Z,71.80
2018-06-15T01:08:51.538Z,72.20
2018-06-15T01:11:19.505Z,72.50
2018-06-15T01:13:47.286Z,72.80
2018-06-15T01:18:43.213Z,72.90
2018-06-15T01:21:11.041Z,73.00
2018-06-15T01:23:38.849Z,72.40
2018-06-15T01:26:06.706Z,72.60
2018-06-15T01:28:34.538Z,72.70
2018-06-15T01:31:02.369Z,72.80
2018-06-15T01:33:30.241Z,73.10
2018-06-15T01:35:58.061Z,72.80
2018-06-15T01:38:25.969Z,72.60
2018-06-15T01:40:53.890Z,72.80
2018-06-15T01:43:21.719Z,72.30
2018-06-15T01:45:49.549Z,72.30
2018-06-15T01:48:17.389Z,72.10
2018-06-15T01:50:45.237Z,72.00
2018-06-15T01:53:13.061Z,72.10
2018-06-15T01:58:08.602Z,72.00
2018-06-15T02:00:36.421Z,72.10
2018-06-15T02:03:04.241Z,71.40
2018-06-15T02:05:32.081Z,71.40
2018-06-15T02:07:59.881Z,71.10
2018-06-15T02:10:27.744Z,71.60
2018-06-15T02:12:55.565Z,71.60
2018-06-15T02:15:23.365Z,71.70
2018-06-15T02:17:51.157Z,71.50
2018-06-15T02:20:19.008Z,71.80
2018-06-15T02:22:46.872Z,71.40
2018-06-15T02:25:14.662Z,70.70
2018-06-15T02:27:42.468Z,71.00
2018-06-15T02:30:10.262Z,71.00
2018-06-15T02:32:38.052Z,71.00
2018-06-15T02:35:05.873Z,71.00
2018-06-15T02:37:33.689Z,71.00
2018-06-15T02:40:01.510Z,71.10
2018-06-15T02:44:57.038Z,71.50
2018-06-15T02:49:52.508Z,72.60
2018-06-15T02:52:20.352Z,72.80
2018-06-15T02:57:15.936Z,73.20
2018-06-15T02:59:43.773Z,73.10
2018-06-15T03:02:11.590Z,73.30
2018-06-15T03:04:39.409Z,72.90
2018-06-15T03:07:07.286Z,73.10
2018-06-15T03:09:35.141Z,73.30
2018-06-15T03:12:03.021Z,73.40
2018-06-15T03:14:30.873Z,73.60
2018-06-15T03:16:58.689Z,73.50
2018-06-15T03:19:26.598Z,73.30
2018-06-15T03:21:54.409Z,73.60
2018-06-15T03:24:22.261Z,74.00
2018-06-15T03:26:50.033Z,73.00
2018-06-15T03:29:17.833Z,72.90
2018-06-15T03:31:45.665Z,72.80
2018-06-15T03:34:13.500Z,73.00
2018-06-15T03:36:41.340Z,72.50
2018-06-15T03:41:39.103Z,72.30
2018-06-15T03:44:06.894Z,72.10
2018-06-15T03:46:35.363Z,72.40
2018-06-15T03:49:03.232Z,72.70
2018-06-15T03:53:58.701Z,72.80
2018-06-15T03:56:26.551Z,72.50
2018-06-15T03:58:54.394Z,72.70
2018-06-15T04:01:22.273Z,72.40
2018-06-15T04:03:50.150Z,72.20
2018-06-15T04:06:17.954Z,72.50
2018-06-15T04:08:45.793Z,72.60
2018-06-15T04:11:13.611Z,73.00
2018-06-15T04:13:41.404Z,73.00
2018-06-15T04:16:09.225Z,72.40
2018-06-15T04:18:37.069Z,71.90
2018-06-15T04:21:04.985Z,72.50
2018-06-15T04:23:32.799Z,72.30
2018-06-15T04:26:00.624Z,72.70
2018-06-15T04:28:28.425Z,73.50
2018-06-15T04:30:56.225Z,72.70
2018-06-15T04:33:24.081Z,71.10
2018-06-15T04:35:51.857Z,70.80
2018-06-15T04:38:19.665Z,70.60
2018-06-15T04:40:47.497Z,69.80
2018-06-15T04:43:15.313Z,68.90
2018-06-15T04:45:43.154Z,68.00
2018-06-15T04:48:11.004Z,68.70
2018-06-15T04:50:38.888Z,68.10
2018-06-15T04:53:06.742Z,68.30
2018-06-15T04:55:34.550Z,67.60
2018-06-15T04:58:02.393Z,67.30
2018-06-15T05:00:30.289Z,67.20
2018-06-15T05:02:58.125Z,66.90
2018-06-15T05:05:25.933Z,67.10
2018-06-15T05:07:53.799Z,66.90
2018-06-15T05:10:21.655Z,67.50
2018-06-15T05:12:49.616Z,66.70
2018-06-15T05:15:17.425Z,66.20
2018-06-15T05:17:45.261Z,65.90
2018-06-15T05:20:13.089Z,64.30
2018-06-15T05:22:40.930Z,64.70
2018-06-15T05:25:08.756Z,65.10
2018-06-15T05:27:36.590Z,64.90
2018-06-15T05:32:32.229Z,65.20
2018-06-15T05:35:00.069Z,65.20
2018-06-15T05:37:28.029Z,64.40
2018-06-15T05:39:55.822Z,63.90
2018-06-15T05:42:23.669Z,64.70
2018-06-15T05:44:51.609Z,65.40
2018-06-15T05:47:19.453Z,65.90
2018-06-15T05:49:47.318Z,65.70
2018-06-15T05:52:15.232Z,65.70
2018-06-15T05:54:43.565Z,65.00
2018-06-15T05:57:11.408Z,64.10
2018-06-15T05:59:39.266Z,64.90
2018-06-15T06:02:07.097Z,66.80
2018-06-15T06:04:34.912Z,68.00
2018-06-15T06:07:02.709Z,68.60
2018-06-15T06:09:30.557Z,68.60
2018-06-15T06:11:58.334Z,68.60
2018-06-15T06:14:26.128Z,67.00
2018-06-15T06:16:53.941Z,66.20
2018-06-15T06:19:21.707Z,61.20
2018-06-15T06:21:49.514Z,59.90
2018-06-15T06:24:17.274Z,58.30
2018-06-15T06:26:45.089Z,57.70
2018-06-15T06:29:12.845Z,57.30
2018-06-15T06:34:08.491Z,56.30
2018-06-15T06:36:36.274Z,56.10
2018-06-15T06:39:06.713Z,56.60
2018-06-15T06:41:34.533Z,56.50
2018-06-15T06:44:02.892Z,55.90
2018-06-15T06:46:30.715Z,55.00
2018-06-15T06:48:58.491Z,53.90
2018-06-15T06:51:26.293Z,52.10
2018-06-15T06:53:54.061Z,53.20
2018-06-15T06:56:21.813Z,52.20
2018-06-15T06:58:49.569Z,50.50
2018-06-15T07:01:17.624Z,50.10
2018-06-15T07:03:46.633Z,49.30
2018-06-15T07:06:14.396Z,49.70
2018-06-15T07:08:42.745Z,49.90
2018-06-15T07:11:10.512Z,50.50
2018-06-15T07:13:38.481Z,50.80
2018-06-15T07:16:06.224Z,50.00
2018-06-15T07:21:01.933Z,49.90
2018-06-15T07:23:29.726Z,50.00
2018-06-15T07:25:57.450Z,51.10
2018-06-15T07:28:25.269Z,49.20
2018-06-15T07:30:53.073Z,48.20
2018-06-15T07:33:20.884Z,47.70
2018-06-15T07:38:16.265Z,45.90
2018-06-15T07:40:45.075Z,45.80
2018-06-15T07:45:40.501Z,46.40
2018-06-15T07:48:08.253Z,45.00
2018-06-15T07:50:36.054Z,45.50
2018-06-15T07:53:03.813Z,43.50
2018-06-15T07:55:31.657Z,43.90
2018-06-15T07:57:59.481Z,42.30
2018-06-15T08:00:27.372Z,43.60
2018-06-15T08:02:55.170Z,44.70
2018-06-15T08:05:22.952Z,45.00
2018-06-15T08:07:50.769Z,44.60
2018-06-15T08:10:18.560Z,44.00
2018-06-15T08:15:13.989Z,43.80
2018-06-15T08:17:41.769Z,42.90
2018-06-15T08:20:09.562Z,43.60
2018-06-15T08:22:37.349Z,43.00
2018-06-15T08:25:05.115Z,42.10
2018-06-15T08:27:32.881Z,42.80
2018-06-15T08:30:00.700Z,42.70
2018-06-15T08:32:28.472Z,42.40
2018-06-15T08:34:56.213Z,42.10
2018-06-15T08:39:51.605Z,42.00
2018-06-15T08:42:19.355Z,42.30
2018-06-15T08:44:47.161Z,41.70
2018-06-15T08:47:14.927Z,40.80
2018-06-15T08:49:42.760Z,41.40
2018-06-15T08:52:10.532Z,39.80
2018-06-15T08:54:38.339Z,39.70
2018-06-15T08:59:33.716Z,38.90
2018-06-15T09:02:01.468Z,38.60
2018-06-15T09:04:29.241Z,36.90
2018-06-15T09:06:57.016Z,37.20
2018-06-15T09:09:24.768Z,37.30
2018-06-15T09:11:52.585Z,36.30
2018-06-15T09:14:20.341Z,38.30
2018-06-15T09:16:48.169Z,39.00
2018-06-15T09:19:15.961Z,37.90
2018-06-15T09:21:43.736Z,37.40
2018-06-15T09:26:39.288Z,36.20
2018-06-15T09:29:07.033Z,36.70
2018-06-15T09:34:02.441Z,35.80
2018-06-15T09:36:30.201Z,36.80
2018-06-15T09:38:58.029Z,37.10
2018-06-15T09:41:25.807Z,37.80
2018-06-15T09:43:53.844Z,35.90
2018-06-15T09:46:21.721Z,35.50
2018-06-15T09:48:49.417Z,35.50
2018-06-15T09:51:17.193Z,37.30
2018-06-15T09:53:44.953Z,36.40
2018-06-15T09:56:12.739Z,35.50
2018-06-15T09:58:40.509Z,35.10
2018-06-15T10:06:05.591Z,37.60
2018-06-15T10:08:33.924Z,36.90
2018-06-15T10:11:01.716Z,37.60
2018-06-15T10:13:29.521Z,36.40
2018-06-15T10:15:57.317Z,35.60
2018-06-15T10:18:25.069Z,36.10
2018-06-15T10:20:52.870Z,37.00
2018-06-15T10:25:48.614Z,36.60
2018-06-15T10:28:16.364Z,34.90
2018-06-15T10:30:44.134Z,36.60
2018-06-15T10:33:11.925Z,37.30
2018-06-15T10:35:40.174Z,36.70
2018-06-15T10:38:07.984Z,36.30
2018-06-15T10:40:35.767Z,36.30
2018-06-15T10:43:03.569Z,36.60
2018-06-15T10:45:31.325Z,38.30
2018-06-15T10:47:59.208Z,38.70
2018-06-15T10:50:26.979Z,38.60
2018-06-15T10:52:54.900Z,38.30
2018-06-15T10:55:22.676Z,38.10
2018-06-15T10:57:50.449Z,37.80
2018-06-15T11:00:18.281Z,37.20
2018-06-15T11:02:46.068Z,37.50
2018-06-15T11:05:13.838Z,37.20
2018-06-15T11:07:42.103Z,37.70
2018-06-15T11:10:09.893Z,39.30
2018-06-15T11:12:37.669Z,38.80
2018-06-15T11:15:05.713Z,39.30
2018-06-15T11:17:34.705Z,40.50
2018-06-15T11:20:02.629Z,41.90
2018-06-15T11:22:30.465Z,41.60
2018-06-15T11:24:58.710Z,40.80
2018-06-15T11:27:26.477Z,39.20
2018-06-15T11:29:54.517Z,39.50
2018-06-15T11:32:22.393Z,39.70
2018-06-15T11:34:50.170Z,40.10
2018-06-15T11:37:18.061Z,38.80
2018-06-15T11:39:45.926Z,40.30
2018-06-15T11:44:41.341Z,40.00
2018-06-15T11:47:09.085Z,41.40
2018-06-15T11:49:37.178Z,41.70
2018-06-15T11:52:04.925Z,39.50
2018-06-15T11:54:32.678Z,40.30
2018-06-15T11:57:00.460Z,40.00
2018-06-15T11:59:28.219Z,39.30
2018-06-15T12:01:56.009Z,38.50
2018-06-15T12:04:23.793Z,39.00
2018-06-15T12:06:51.601Z,35.60
2018-06-15T12:09:19.353Z,34.50
2018-06-15T12:11:47.129Z,34.60
2018-06-15T12:14:14.893Z,35.20
2018-06-15T12:16:42.648Z,35.10
2018-06-15T12:19:10.433Z,35.20
2018-06-15T12:21:38.197Z,35.20
2018-06-15T12:24:05.965Z,37.00
2018-06-15T12:26:33.765Z,35.80
2018-06-15T12:29:01.539Z,35.00
2018-06-15T12:33:56.963Z,34.60
2018-06-15T12:36:24.705Z,34.50
2018-06-15T12:38:52.473Z,35.20
2018-06-15T12:41:20.335Z,36.50
2018-06-15T12:43:48.141Z,33.70
2018-06-15T12:46:15.901Z,34.60
2018-06-15T12:51:11.372Z,35.20
2018-06-15T12:53:39.171Z,36.40
2018-06-15T12:58:34.539Z,37.60
2018-06-15T13:01:02.321Z,37.50
2018-06-15T13:03:30.085Z,38.30
2018-06-15T13:05:57.884Z,36.20
2018-06-15T13:08:25.657Z,36.70
2018-06-15T13:10:53.397Z,36.40
2018-06-15T13:13:21.193Z,34.30
2018-06-15T13:15:48.957Z,36.80
2018-06-15T13:18:16.732Z,38.40
2018-06-15T13:20:44.515Z,36.50
2018-06-15T13:23:12.294Z,36.00
2018-06-15T13:25:40.037Z,35.90
2018-06-15T13:28:07.830Z,35.70
2018-06-15T13:30:35.589Z,36.10
2018-06-15T13:33:03.439Z,35.30
2018-06-15T13:35:31.182Z,33.10
2018-06-15T13:40:26.597Z,33.10
2018-06-15T13:42:54.437Z,36.00
2018-06-15T13:45:22.201Z,36.40
2018-06-15T13:47:49.953Z,35.90
2018-06-15T13:50:17.750Z,35.80
2018-06-15T13:52:45.519Z,34.90
2018-06-15T13:55:13.369Z,35.90
2018-06-15T13:57:41.275Z,36.30
2018-06-15T14:00:09.016Z,38.00
2018-06-15T14:02:36.776Z,39.10
2018-06-15T14:05:04.633Z,36.50
2018-06-15T14:07:32.411Z,36.80
2018-06-15T14:10:00.145Z,37.30
2018-06-15T14:12:27.995Z,36.00
2018-06-15T14:14:55.745Z,35.80
2018-06-15T14:17:23.505Z,35.00
2018-06-15T14:19:51.266Z,34.60
2018-06-15T14:24:46.673Z,37.10
2018-06-15T14:27:14.414Z,37.60
2018-06-15T14:29:42.256Z,36.60
2018-06-15T14:32:10.025Z,37.10
2018-06-15T14:34:37.827Z,36.90
2018-06-15T14:37:05.603Z,35.10
2018-06-15T14:42:01.017Z,33.90
2018-06-15T14:44:28.801Z,33.80
2018-06-15T14:46:56.562Z,34.50
2018-06-15T14:49:24.313Z,34.60
2018-06-15T14:51:52.129Z,34.20
2018-06-15T14:54:19.898Z,34.70
2018-06-15T14:56:47.743Z,34.20
2018-06-15T14:59:15.527Z,34.30
2018-06-15T15:01:43.309Z,36.00
2018-06-15T15:04:11.089Z,35.80
2018-06-15T15:06:38.853Z,36.50
2018-06-15T15:09:07.082Z,36.10
2018-06-15T15:11:34.884Z,36.40
2018-06-15T15:14:02.800Z,35.80
2018-06-15T15:16:30.617Z,36.10
2018-06-15T15:18:58.369Z,35.20
2018-06-15T15:21:26.110Z,37.20
2018-06-15T15:23:53.904Z,35.50
2018-06-15T15:26:21.657Z,36.40
2018-06-15T15:28:49.557Z,35.60
2018-06-15T15:31:17.309Z,35.80
2018-06-15T15:33:45.124Z,36.20
2018-06-15T15:38:40.484Z,36.00
2018-06-15T15:41:08.302Z,35.80
2018-06-15T15:43:36.066Z,36.60
2018-06-15T15:46:03.854Z,36.60
2018-06-15T15:48:31.638Z,35.60
2018-06-15T15:50:59.409Z,36.40
2018-06-15T15:53:27.164Z,35.90
2018-06-15T15:55:54.953Z,35.90
2018-06-15T15:58:23.049Z,37.20
2018-06-15T16:00:51.001Z,36.80
2018-06-15T16:03:18.776Z,37.00
2018-06-15T16:05:46.585Z,38.30
2018-06-15T16:08:14.333Z,38.60
2018-06-15T16:10:42.145Z,37.30
2018-06-15T16:13:09.922Z,37.10
2018-06-15T16:15:37.774Z,37.20
2018-06-15T16:18:05.554Z,38.90
2018-06-15T16:20:33.347Z,37.20
2018-06-15T16:23:01.625Z,37.50
2018-06-15T16:27:57.209Z,37.70
2018-06-15T16:30:25.041Z,38.00
2018-06-15T16:35:46.180Z,36.90
2018-06-15T16:38:13.945Z,37.70
2018-06-15T16:40:41.697Z,37.50
2018-06-15T17:00:01.473Z,38.00
2018-06-15T17:02:29.265Z,38.00
2018-06-15T17:04:56.996Z,37.90
2018-06-15T17:07:24.773Z,38.90
2018-06-15T17:09:52.598Z,39.10
2018-06-15T17:12:20.381Z,38.50
2018-06-15T17:14:48.141Z,38.50
2018-06-15T17:17:15.961Z,38.80
2018-06-15T17:19:44.435Z,38.70
2018-06-15T17:22:12.567Z,38.60
2018-06-15T17:24:40.324Z,38.90
2018-06-15T17:27:08.079Z,39.00
2018-06-15T17:29:35.849Z,38.80
2018-06-15T17:32:03.636Z,38.60
2018-06-15T17:34:31.625Z,38.80
2018-06-15T17:39:27.057Z,38.60
2018-06-15T17:41:54.869Z,38.10
2018-06-15T17:44:22.625Z,38.40
2018-06-15T17:46:50.389Z,38.90
2018-06-15T17:49:18.169Z,38.90
2018-06-15T17:51:45.921Z,39.10
2018-06-15T17:54:13.680Z,39.50
2018-06-15T17:56:41.484Z,40.00
2018-06-15T17:59:09.241Z,39.90
2018-06-15T18:01:37.005Z,40.20
2018-06-15T18:04:04.788Z,40.60
2018-06-15T18:06:32.581Z,41.00
2018-06-15T18:11:28.079Z,41.50
2018-06-15T18:13:56.381Z,41.50
2018-06-15T18:16:24.857Z,41.40
2018-06-15T18:21:21.094Z,41.20
2018-06-15T18:23:48.875Z,41.50
2018-06-15T18:26:16.644Z,41.80
2018-06-15T18:28:44.460Z,41.70
2018-06-15T18:31:12.584Z,42.00
2018-06-15T18:33:40.775Z,42.20
2018-06-15T18:36:08.953Z,42.60
2018-06-15T18:38:36.752Z,42.80
2018-06-15T18:41:04.541Z,43.10
2018-06-15T18:43:32.345Z,43.30
2018-06-15T18:46:00.121Z,43.50
2018-06-15T18:48:27.904Z,43.30
2018-06-15T18:50:55.688Z,43.30
2018-06-15T18:53:23.465Z,43.10
2018-06-15T18:55:51.830Z,43.50
2018-06-15T18:58:20.302Z,43.60
2018-06-15T19:00:48.393Z,43.60
2018-06-15T19:03:16.516Z,43.80
2018-06-15T19:05:44.839Z,43.90
2018-06-15T19:08:13.090Z,43.70
2018-06-15T19:10:41.355Z,44.30
2018-06-15T19:13:09.613Z,44.50
2018-06-15T19:15:37.882Z,44.30
2018-06-15T19:18:05.702Z,44.70
2018-06-15T19:20:33.561Z,44.90
2018-06-15T19:23:01.355Z,45.50
2018-06-15T19:25:29.076Z,45.30
2018-06-15T19:27:56.872Z,45.60
2018-06-15T19:30:24.709Z,45.50
2018-06-15T19:32:52.477Z,45.60
2018-06-15T19:35:20.244Z,45.60
2018-06-15T19:37:48.009Z,45.70
2018-06-15T19:40:15.817Z,46.20
2018-06-15T19:42:43.565Z,46.30
2018-06-15T19:45:11.342Z,46.60
2018-06-15T19:47:39.176Z,46.70
2018-06-15T19:50:06.957Z,46.80
2018-06-15T19:52:34.741Z,46.60
2018-06-15T19:55:02.508Z,46.50
2018-06-15T19:59:57.925Z,46.80
2018-06-15T20:02:25.697Z,46.30
2018-06-15T20:04:54.353Z,45.50
2018-06-15T20:07:22.169Z,46.40
2018-06-15T20:09:49.925Z,44.60
2018-06-15T20:12:17.697Z,44.50
2018-06-15T20:14:45.585Z,45.50
2018-06-15T20:17:14.028Z,45.90
2018-06-15T20:19:43.195Z,46.10
2018-06-15T20:22:11.393Z,46.50
2018-06-15T20:24:39.165Z,46.20
2018-06-15T20:27:06.940Z,46.90
2018-06-15T20:29:34.749Z,46.70
2018-06-15T20:32:02.518Z,46.90
2018-06-15T20:34:31.296Z,46.40
2018-06-15T20:36:59.681Z,46.50
2018-06-15T20:39:27.890Z,46.60
2018-06-15T20:41:55.974Z,46.00
2018-06-15T20:44:24.569Z,46.00
2018-06-15T20:46:52.908Z,45.00
2018-06-15T20:49:21.415Z,44.90
2018-06-15T20:51:49.890Z,44.60
2018-06-15T20:54:18.139Z,43.80
2018-06-15T20:56:46.481Z,44.00
2018-06-15T20:59:14.365Z,43.90
2018-06-15T21:01:42.181Z,43.90
2018-06-15T21:04:10.001Z,44.00
2018-06-15T21:06:37.793Z,43.80
2018-06-15T21:09:07.141Z,43.90
2018-06-15T21:11:34.945Z,44.10
2018-06-15T21:14:03.064Z,44.50
2018-06-15T21:16:30.864Z,44.90
2018-06-15T21:18:59.915Z,45.30
2018-06-15T21:21:27.689Z,45.70
2018-06-15T21:23:55.754Z,45.40
2018-06-15T21:26:23.504Z,45.80
2018-06-15T21:28:51.265Z,46.40
2018-06-15T21:31:19.694Z,46.40
2018-06-15T21:33:47.481Z,46.90
2018-06-15T21:36:15.272Z,47.20
2018-06-15T21:38:43.041Z,47.50
2018-06-15T21:41:10.856Z,47.40
2018-06-15T21:43:38.643Z,47.70
2018-06-15T21:46:06.440Z,47.90
2018-06-15T21:48:34.245Z,48.20
2018-06-15T21:51:02.007Z,48.50
2018-06-15T21:53:29.805Z,48.70
2018-06-15T21:55:57.576Z,48.80
2018-06-15T21:58:25.393Z,48.90
2018-06-15T22:00:53.430Z,48.90
2018-06-15T22:03:21.824Z,49.10
2018-06-15T22:05:50.224Z,49.50
2018-06-15T22:08:18.069Z,49.60
2018-06-15T22:10:45.873Z,50.00
2018-06-15T22:13:13.661Z,49.80
2018-06-15T22:15:41.461Z,49.70
2018-06-15T22:18:09.261Z,49.60
2018-06-15T22:20:37.057Z,49.50
2018-06-15T22:23:04.881Z,49.50
2018-06-15T22:25:33.503Z,50.00
2018-06-15T22:28:01.297Z,49.80
2018-06-15T22:30:29.068Z,49.50
2018-06-15T22:32:57.984Z,50.40
2018-06-15T22:35:25.798Z,50.90
2018-06-15T22:37:53.549Z,51.10
2018-06-15T22:40:21.440Z,51.10
2018-06-15T22:42:49.221Z,51.40
2018-06-15T22:45:16.993Z,51.90
2018-06-15T22:47:44.769Z,52.40
2018-06-15T22:50:12.560Z,52.80
2018-06-15T22:52:40.320Z,52.90
2018-06-15T22:55:08.116Z,52.70
2018-06-15T22:57:35.904Z,52.90
2018-06-15T23:00:04.218Z,53.10
2018-06-15T23:02:31.961Z,53.00
2018-06-15T23:04:59.712Z,53.10
2018-06-15T23:07:27.527Z,53.10
2018-06-15T23:09:55.352Z,53.10
2018-06-15T23:12:23.165Z,53.40
2018-06-15T23:14:50.924Z,53.90
2018-06-15T23:17:18.681Z,54.20
2018-06-15T23:22:14.077Z,55.30
2018-06-15T23:24:41.860Z,54.90
2018-06-15T23:27:09.609Z,54.80
2018-06-15T23:29:37.380Z,54.90
2018-06-15T23:32:05.149Z,55.60
2018-06-15T23:34:32.981Z,55.90
2018-06-15T23:37:00.742Z,56.00
2018-06-15T23:39:28.529Z,56.80
2018-06-15T23:41:56.301Z,56.60
2018-06-15T23:44:24.044Z,56.60
2018-06-15T23:46:51.808Z,56.80
2018-06-15T23:49:19.598Z,57.10
2018-06-15T23:51:47.365Z,57.10
2018-06-15T23:56:42.777Z,57.70
2018-06-15T23:59:10.545Z,57.80
